Time;durP1;ratioP1;P1;durP2;ratioP2;P2;SDS_P1;SDS_P2;PMS_P1;PMS_P2;Temp;Humidity;BMP_temperature;BMP_pressure;BME280_temperature;BME280_humidity;BME280_pressure;Samples;Min_cycle;Max_cycle;Signal;HPM_P1;HPM_P2
2023/03/21 00:01:43;;;;;;;10.65;3.17;;;;;;;10.64;69.74;101285.31;4999997;28;20037;-69
2023/03/21 00:04:09;;;;;;;8.77;2.95;;;;;;;10.63;70.40;101281.00;5004302;28;20045;-70
2023/03/21 00:06:35;;;;;;;7.10;3.00;;;;;;;10.62;70.12;101268.06;5004550;28;20108;-69
2023/03/21 00:09:00;;;;;;;9.95;3.35;;;;;;;10.61;70.17;101285.31;5000752;28;20129;-69
2023/03/21 00:11:26;;;;;;;7.70;3.28;;;;;;;10.59;70.44;101281.00;4996595;28;20125;-69
2023/03/21 00:13:52;;;;;;;8.23;3.22;;;;;;;10.59;70.00;101270.66;5004820;28;20041;-69
2023/03/21 00:16:18;;;;;;;8.38;3.13;;;;;;;10.61;70.45;101268.94;4998275;28;20064;-70
2023/03/21 00:18:47;;;;;;;11.40;3.03;;;;;;;10.61;69.64;101266.34;5002329;28;20034;-69
2023/03/21 00:21:18;;;;;;;10.43;2.88;;;;;;;10.61;70.10;101266.34;4998123;28;20040;-70
2023/03/21 00:23:45;;;;;;;10.82;2.85;;;;;;;10.61;70.36;101262.03;5003202;28;20041;-70
2023/03/21 00:26:11;;;;;;;10.88;3.08;;;;;;;10.61;69.80;101258.59;4998569;28;20121;-69
2023/03/21 00:28:39;;;;;;;7.65;3.03;;;;;;;10.62;70.41;101257.75;5002119;28;20042;-69
2023/03/21 00:31:06;;;;;;;10.30;2.95;;;;;;;10.62;70.70;101252.56;4998782;28;20101;-70
2023/03/21 00:33:33;;;;;;;7.22;3.20;;;;;;;10.63;70.04;101246.50;5000319;28;20030;-69
2023/03/21 00:35:59;;;;;;;7.28;3.25;;;;;;;10.62;69.71;101244.81;5001256;28;20034;-71
2023/03/21 00:38:25;;;;;;;12.50;3.08;;;;;;;10.61;69.51;101245.66;5001705;28;20456;-70
2023/03/21 00:40:51;;;;;;;7.38;3.13;;;;;;;10.60;70.37;101247.38;5008762;28;20148;-69
2023/03/21 00:43:18;;;;;;;9.82;3.22;;;;;;;10.61;70.28;101237.91;5005178;28;20041;-69
2023/03/21 00:45:45;;;;;;;8.40;3.13;;;;;;;10.61;69.76;101236.19;5007323;28;20030;-71
2023/03/21 00:48:10;;;;;;;6.63;3.00;;;;;;;10.59;70.09;101232.75;5001581;28;20136;-69
2023/03/21 00:50:37;;;;;;;6.28;3.08;;;;;;;10.62;69.51;101231.88;5006039;28;20038;-69
2023/03/21 00:53:03;;;;;;;9.57;3.78;;;;;;;10.60;70.19;101233.59;5001282;28;20071;-69
2023/03/21 00:55:29;;;;;;;10.43;3.78;;;;;;;10.59;70.39;101234.47;5005983;28;20066;-69
2023/03/21 00:57:55;;;;;;;10.80;3.70;;;;;;;10.60;69.74;101233.59;5001077;28;20035;-69
2023/03/21 01:00:21;;;;;;;8.27;3.25;;;;;;;10.61;69.47;101219.81;4999015;28;20042;-70
2023/03/21 01:02:55;;;;;;;7.90;3.20;;;;;;;10.61;69.75;101222.41;5003356;28;20116;-69
2023/03/21 01:08:12;;;;;;;13.45;3.70;;;;;;;10.60;70.35;101220.66;5000932;28;20602;-69
2023/03/21 01:10:44;;;;;;;8.48;3.88;;;;;;;10.61;70.77;101217.22;5001108;28;20453;-70
2023/03/21 01:13:12;;;;;;;9.30;3.40;;;;;;;10.58;70.76;101217.22;5003155;28;20045;-70
2023/03/21 01:15:46;;;;;;;10.73;3.85;;;;;;;10.60;70.52;101212.91;4996372;28;20756;-69
2023/03/21 01:18:14;;;;;;;10.05;3.90;;;;;;;10.60;70.44;101215.50;4998760;28;20116;-69
2023/03/21 01:20:41;;;;;;;9.65;3.65;;;;;;;10.59;70.63;101216.38;5001617;28;20376;-70
2023/03/21 01:23:06;;;;;;;10.43;3.90;;;;;;;10.57;70.49;101215.50;5006677;28;20121;-69
2023/03/21 01:25:32;;;;;;;12.77;3.78;;;;;;;10.54;70.72;101223.25;5010737;28;20116;-70
2023/03/21 01:27:57;;;;;;;8.38;3.63;;;;;;;10.53;71.14;101221.56;5005604;28;20040;-69
2023/03/21 01:30:23;;;;;;;12.85;3.67;;;;;;;10.52;71.36;101210.34;5005324;28;20563;-69
2023/03/21 01:32:48;;;;;;;11.13;3.40;;;;;;;10.52;71.45;101220.69;5005517;28;20034;-70
2023/03/21 01:35:14;;;;;;;10.40;4.05;;;;;;;10.53;71.06;101206.91;5005137;28;20399;-69
2023/03/21 01:37:40;;;;;;;13.15;3.78;;;;;;;10.53;71.02;101200.88;4999114;28;20065;-69
2023/03/21 01:40:11;;;;;;;10.95;4.43;;;;;;;10.55;70.65;101202.59;5004835;28;20038;-69
2023/03/21 01:42:37;;;;;;;8.43;3.70;;;;;;;10.56;71.33;101206.03;5002835;28;20042;-69
2023/03/21 01:45:26;;;;;;;8.73;3.97;;;;;;;10.56;71.51;101209.50;5000792;28;20513;-69
2023/03/21 01:47:51;;;;;;;16.20;3.92;;;;;;;10.55;70.88;101194.84;5005105;28;20403;-69
2023/03/21 01:50:20;;;;;;;7.45;3.55;;;;;;;10.55;71.03;101196.56;4995262;28;20025;-69
2023/03/21 01:52:48;;;;;;;12.38;4.13;;;;;;;10.54;71.52;101195.69;5006386;28;20140;-69
2023/03/21 01:55:17;;;;;;;9.90;4.47;;;;;;;10.55;71.85;101200.00;5000380;28;20050;-69
2023/03/21 01:57:51;;;;;;;7.68;3.90;;;;;;;10.55;70.92;101200.00;5001281;28;20157;-69
2023/03/21 02:00:20;;;;;;;6.70;3.30;;;;;;;10.53;71.94;101191.41;5012790;28;20047;-69
2023/03/21 02:02:50;;;;;;;12.45;3.65;;;;;;;10.54;71.18;101189.66;4997894;28;20049;-69
2023/03/21 02:05:21;;;;;;;12.27;3.53;;;;;;;10.52;71.61;101197.44;4998567;28;20029;-69
2023/03/21 02:07:51;;;;;;;9.95;3.33;;;;;;;10.51;71.25;101184.50;5005415;28;20115;-69
2023/03/21 02:10:17;;;;;;;9.30;4.35;;;;;;;10.50;71.36;101186.25;4998368;28;20722;-68
2023/03/21 02:12:42;;;;;;;11.77;4.05;;;;;;;10.42;72.33;101185.38;5004825;28;20038;-70
2023/03/21 02:15:09;;;;;;;6.78;3.10;;;;;;;10.36;72.37;101185.38;4999801;28;20044;-70
2023/03/21 02:17:49;;;;;;;14.55;3.92;;;;;;;10.30;72.42;101192.28;5002386;28;20407;-70
2023/03/21 02:20:53;;;;;;;8.95;3.70;;;;;;;10.27;73.10;101184.53;5003095;28;20030;-69
2023/03/21 02:23:36;;;;;;;11.20;4.00;;;;;;;10.26;72.58;101175.94;4994610;28;20015;-70
2023/03/21 02:26:10;;;;;;;12.07;3.65;;;;;;;10.26;72.02;101165.59;5000525;28;20022;-70
2023/03/21 02:28:50;;;;;;;8.10;3.47;;;;;;;10.22;72.61;101159.56;4992269;28;20053;-70
2023/03/21 02:31:25;;;;;;;12.20;3.88;;;;;;;10.19;72.78;101169.03;4996267;28;20037;-70
2023/03/21 02:33:53;;;;;;;13.05;3.60;;;;;;;10.15;73.06;101156.97;5000936;28;20034;-70
2023/03/21 02:36:49;;;;;;;8.75;3.78;;;;;;;10.15;72.91;101159.53;5001181;28;20042;-70
2023/03/21 02:39:38;;;;;;;14.82;4.28;;;;;;;10.17;72.94;101160.44;5004408;28;20149;-70
2023/03/21 02:42:26;;;;;;;10.13;3.58;;;;;;;10.19;73.54;101150.94;5015437;28;20035;-70
2023/03/21 02:45:11;;;;;;;11.48;4.40;;;;;;;10.15;73.33;101162.13;5000093;28;20157;-70
2023/03/21 02:47:59;;;;;;;7.27;4.00;;;;;;;10.13;73.72;101162.16;4999294;28;20048;-69
2023/03/21 02:50:49;;;;;;;11.15;3.95;;;;;;;10.07;73.55;101153.53;5006355;28;20076;-70
2023/03/21 02:53:18;;;;;;;8.57;3.15;;;;;;;10.02;74.34;101156.13;4996197;28;20037;-70
2023/03/21 02:55:44;;;;;;;10.07;4.10;;;;;;;9.98;73.90;101153.53;4999710;28;20037;-70
2023/03/21 02:58:18;;;;;;;11.23;4.32;;;;;;;9.94;74.62;101157.00;4995815;28;20042;-69
2023/03/21 03:00:45;;;;;;;8.45;3.80;;;;;;;9.90;74.74;101148.38;4999285;28;20033;-70
2023/03/21 03:03:14;;;;;;;7.75;3.15;;;;;;;9.92;74.69;101148.34;4998576;28;20693;-70
2023/03/21 03:05:52;;;;;;;13.73;4.68;;;;;;;9.94;74.76;101151.81;5017135;28;20057;-70
2023/03/21 03:08:52;;;;;;;9.40;3.75;;;;;;;9.95;74.52;101143.19;4996193;28;20121;-71
2023/03/21 03:11:27;;;;;;;9.73;3.38;;;;;;;9.97;75.21;101147.50;4997045;28;20437;-70
2023/03/21 03:14:15;;;;;;;10.48;3.63;;;;;;;10.02;74.62;101150.09;4999558;28;20025;-70
2023/03/21 03:16:53;;;;;;;8.10;3.50;;;;;;;10.02;75.01;101148.38;5001123;28;20099;-70
2023/03/21 03:19:28;;;;;;;9.45;4.13;;;;;;;10.06;74.94;101136.34;5007252;28;20065;-70
2023/03/21 03:22:12;;;;;;;9.07;3.88;;;;;;;10.07;74.66;101130.28;4995738;28;20046;-70
2023/03/21 03:24:46;;;;;;;9.40;3.60;;;;;;;10.06;75.38;101132.00;5000232;28;20406;-70
2023/03/21 03:27:18;;;;;;;17.50;4.25;;;;;;;10.06;74.61;101123.41;4997423;28;20057;-70
2023/03/21 03:29:47;;;;;;;13.38;3.92;;;;;;;10.05;74.84;101119.97;4998429;28;20063;-71
2023/03/21 03:32:17;;;;;;;7.38;3.97;;;;;;;10.08;75.07;101119.97;5002194;28;20026;-70
2023/03/21 03:34:48;;;;;;;6.25;3.38;;;;;;;10.08;74.35;101121.69;5004412;28;20631;-71
2023/03/21 03:37:19;;;;;;;9.02;3.72;;;;;;;10.08;74.90;101119.97;5006963;28;20041;-71
2023/03/21 03:39:46;;;;;;;13.25;4.03;;;;;;;10.12;74.83;101123.38;5000636;28;20447;-71
2023/03/21 03:42:25;;;;;;;9.98;3.53;;;;;;;10.12;74.83;101113.91;5000238;28;20048;-71
2023/03/21 03:44:51;;;;;;;11.77;4.05;;;;;;;10.14;74.60;101119.97;4991370;28;20039;-70
2023/03/21 03:47:23;;;;;;;6.32;3.72;;;;;;;10.15;75.11;101118.22;4995487;28;20037;-71
2023/03/21 03:50:02;;;;;;;13.55;4.55;;;;;;;10.13;74.76;101109.63;4992977;28;20025;-71
2023/03/21 03:52:54;;;;;;;7.75;3.53;;;;;;;10.12;75.22;101115.63;4996285;28;20077;-70
2023/03/21 03:55:22;;;;;;;11.13;3.85;;;;;;;10.09;74.98;101108.75;4999788;28;20092;-71
2023/03/21 03:57:48;;;;;;;11.25;3.97;;;;;;;10.10;74.84;101104.44;4997093;28;20046;-71
2023/03/21 04:00:16;;;;;;;12.63;4.55;;;;;;;10.09;75.49;101113.91;4999254;28;20895;-70
2023/03/21 04:02:42;;;;;;;8.25;4.00;;;;;;;10.08;75.32;101107.06;5002428;28;20116;-71
2023/03/21 04:05:08;;;;;;;9.95;3.95;;;;;;;10.09;75.32;101108.75;4995856;28;20388;-71
2023/03/21 04:07:33;;;;;;;11.20;4.53;;;;;;;10.11;75.16;101109.63;4994307;28;20121;-71
2023/03/21 04:09:59;;;;;;;15.80;4.43;;;;;;;10.12;75.44;101103.59;4983523;28;20152;-70
2023/03/21 04:12:24;;;;;;;9.90;3.60;;;;;;;10.12;74.72;101101.00;4997396;28;20038;-70
2023/03/21 04:14:50;;;;;;;15.15;4.00;;;;;;;10.16;75.30;101101.88;4989945;28;20735;-71
2023/03/21 04:17:15;;;;;;;12.60;3.70;;;;;;;10.16;74.88;101096.69;4993290;28;20797;-71
2023/03/21 04:19:41;;;;;;;13.18;3.92;;;;;;;10.19;75.11;101102.72;4996227;28;20456;-71
2023/03/21 04:22:07;;;;;;;13.52;4.30;;;;;;;10.20;75.18;101096.72;4998781;28;20034;-71
2023/03/21 04:24:32;;;;;;;11.10;4.05;;;;;;;10.19;75.19;101100.16;4998958;28;20613;-70
2023/03/21 04:26:58;;;;;;;8.52;3.75;;;;;;;10.19;75.67;101100.16;4994809;28;20030;-71
2023/03/21 04:29:23;;;;;;;10.73;4.38;;;;;;;10.18;75.12;101094.97;4992313;28;20038;-71
2023/03/21 04:31:49;;;;;;;11.18;4.70;;;;;;;10.18;75.44;101094.97;4996336;28;20033;-70
2023/03/21 04:34:14;;;;;;;12.02;4.57;;;;;;;10.17;75.79;101099.28;4995070;28;20034;-71
2023/03/21 04:36:46;;;;;;;10.30;3.78;;;;;;;10.15;75.56;101095.84;4996946;28;20135;-71
2023/03/21 04:39:12;;;;;;;10.02;4.25;;;;;;;10.13;75.89;101089.81;4998070;28;20034;-70
2023/03/21 04:41:39;;;;;;;7.75;3.78;;;;;;;10.07;76.17;101087.25;5006139;28;20082;-71
2023/03/21 04:44:05;;;;;;;11.77;3.65;;;;;;;10.03;76.32;101092.44;4998166;28;20108;-69
2023/03/21 04:46:30;;;;;;;14.65;3.88;;;;;;;9.98;76.23;101089.84;4982240;28;20037;-71
2023/03/21 04:48:56;;;;;;;12.10;4.47;;;;;;;9.96;76.48;101090.69;5006731;28;20080;-71
2023/03/21 04:51:21;;;;;;;8.73;3.60;;;;;;;9.94;76.81;101090.69;5006250;28;20040;-71
2023/03/21 04:53:48;;;;;;;9.80;3.90;;;;;;;9.93;76.78;101089.00;5007620;28;20046;-71
2023/03/21 04:56:14;;;;;;;20.70;5.22;;;;;;;9.94;76.17;101082.09;5009290;28;20137;-70
2023/03/21 04:58:40;;;;;;;9.43;4.13;;;;;;;9.95;76.78;101091.56;4991871;28;20068;-71
2023/03/21 05:01:07;;;;;;;9.40;3.60;;;;;;;9.98;76.63;101086.38;4994570;28;20046;-71
2023/03/21 05:03:38;;;;;;;8.95;3.92;;;;;;;9.99;77.17;101090.69;5004538;28;20069;-71
2023/03/21 05:06:07;;;;;;;13.45;4.30;;;;;;;10.01;76.58;101087.25;4992297;28;20046;-71
2023/03/21 05:08:34;;;;;;;10.15;4.22;;;;;;;10.01;76.13;101089.84;5002216;28;20038;-71
2023/03/21 05:11:00;;;;;;;10.00;4.07;;;;;;;10.02;76.05;101093.28;4992230;28;20137;-69
2023/03/21 05:13:25;;;;;;;11.75;4.72;;;;;;;10.05;76.67;101095.84;4998717;28;20133;-71
2023/03/21 05:15:50;;;;;;;12.88;4.43;;;;;;;10.04;76.44;101088.97;5004602;28;20037;-71
2023/03/21 05:18:23;;;;;;;10.63;3.92;;;;;;;10.05;76.73;101091.56;5000743;28;20419;-71
2023/03/21 05:20:53;;;;;;;10.48;3.92;;;;;;;10.06;76.43;101092.44;4992854;28;20042;-71
2023/03/21 05:23:20;;;;;;;13.57;4.43;;;;;;;10.07;76.39;101086.38;4996303;28;20621;-71
2023/03/21 05:25:45;;;;;;;12.48;4.57;;;;;;;10.07;76.57;101088.97;4990329;28;20030;-71
2023/03/21 05:28:11;;;;;;;9.57;4.05;;;;;;;10.08;76.83;101086.41;4989315;28;20746;-71
2023/03/21 05:30:37;;;;;;;13.77;4.43;;;;;;;10.07;77.12;101087.25;4994393;28;20054;-71
2023/03/21 05:33:02;;;;;;;14.07;4.80;;;;;;;10.09;76.44;101088.09;4990313;28;20671;-71
2023/03/21 05:35:28;;;;;;;9.95;3.85;;;;;;;10.12;76.01;101080.34;4994829;28;20160;-71
2023/03/21 05:37:54;;;;;;;9.48;4.25;;;;;;;10.14;75.82;101085.53;4998326;28;20030;-71
2023/03/21 05:40:20;;;;;;;13.18;4.65;;;;;;;10.16;75.88;101084.66;4991680;28;20460;-71
2023/03/21 05:42:46;;;;;;;7.00;3.72;;;;;;;10.20;76.50;101082.94;4997567;28;20045;-72
2023/03/21 05:45:12;;;;;;;9.63;4.68;;;;;;;10.22;75.59;101082.06;4989050;28;20042;-72
2023/03/21 05:47:37;;;;;;;10.10;4.22;;;;;;;10.22;76.02;101079.47;4990185;28;20171;-71
2023/03/21 05:50:03;;;;;;;8.30;4.20;;;;;;;10.22;75.71;101076.88;4990610;28;20026;-71
2023/03/21 05:52:28;;;;;;;11.60;4.10;;;;;;;10.23;75.77;101083.78;4996597;28;20571;-71
2023/03/21 05:54:54;;;;;;;12.13;4.72;;;;;;;10.25;75.52;101078.59;5005844;28;20132;-71
2023/03/21 05:57:19;;;;;;;13.95;4.15;;;;;;;10.26;76.13;101077.75;4995972;28;20041;-71
2023/03/21 05:59:45;;;;;;;12.25;4.53;;;;;;;10.28;74.86;101075.16;4992987;28;20045;-70
2023/03/21 06:02:10;;;;;;;8.68;3.63;;;;;;;10.30;75.73;101086.34;4988183;28;20061;-71
2023/03/21 06:04:36;;;;;;;13.40;4.53;;;;;;;10.31;75.99;101081.16;4992838;28;20581;-71
2023/03/21 06:07:02;;;;;;;11.15;3.95;;;;;;;10.33;75.40;101076.03;4995141;28;20029;-72
2023/03/21 06:09:27;;;;;;;18.15;4.15;;;;;;;10.37;75.06;101080.28;4989991;28;20041;-70
2023/03/21 06:11:55;;;;;;;12.70;4.40;;;;;;;10.38;75.87;101082.88;4988039;28;20545;-71
2023/03/21 06:14:21;;;;;;;11.52;4.50;;;;;;;10.43;75.44;101077.69;4996090;28;20046;-71
2023/03/21 06:16:47;;;;;;;9.10;4.53;;;;;;;10.49;75.65;101080.25;4987797;28;21372;-71
2023/03/21 06:19:12;;;;;;;16.48;4.05;;;;;;;10.51;74.99;101074.22;4987569;28;20673;-71
2023/03/21 06:21:37;;;;;;;8.27;4.82;;;;;;;10.54;75.57;101081.09;4995814;28;20034;-71
2023/03/21 06:24:03;;;;;;;12.68;4.70;;;;;;;10.57;76.00;101083.69;4998095;28;20038;-71
2023/03/21 06:26:29;;;;;;;15.18;5.18;;;;;;;10.59;75.57;101087.13;4992657;28;20416;-70
2023/03/21 06:28:54;;;;;;;12.23;5.10;;;;;;;10.63;75.54;101081.94;4995111;28;20040;-70
2023/03/21 06:31:21;;;;;;;14.43;4.95;;;;;;;10.69;75.00;101078.47;4992702;28;20049;-71
2023/03/21 06:33:47;;;;;;;10.32;5.43;;;;;;;10.72;74.68;101078.44;4989769;28;20046;-70
2023/03/21 06:36:13;;;;;;;12.77;4.53;;;;;;;10.76;75.19;101086.22;4993445;28;20038;-70
2023/03/21 06:38:38;;;;;;;16.13;5.10;;;;;;;10.79;74.32;101078.44;4992746;28;20403;-70
2023/03/21 06:41:06;;;;;;;14.02;4.65;;;;;;;10.84;74.11;101082.72;4999496;28;20112;-70
2023/03/21 06:43:32;;;;;;;17.60;5.10;;;;;;;10.88;74.38;101087.88;5000830;28;20022;-70
2023/03/21 06:45:58;;;;;;;12.55;5.13;;;;;;;10.91;74.81;101087.88;4994460;28;20090;-71
2023/03/21 06:48:24;;;;;;;13.45;4.95;;;;;;;10.94;73.77;101072.34;4997811;28;20177;-70
2023/03/21 06:50:51;;;;;;;14.10;5.25;;;;;;;10.98;74.51;101078.34;4995581;28;20777;-69
2023/03/21 06:53:19;;;;;;;14.25;5.13;;;;;;;11.00;74.45;101098.16;4990547;28;20057;-69
2023/03/21 06:55:48;;;;;;;13.82;4.78;;;;;;;11.04;74.01;101097.25;4991243;28;20709;-70
2023/03/21 06:58:14;;;;;;;15.05;6.13;;;;;;;11.02;75.19;101103.31;4987729;28;20041;-70
2023/03/21 07:00:39;;;;;;;12.05;5.22;;;;;;;11.01;75.64;101106.78;4993601;28;20042;-69
2023/03/21 07:03:04;;;;;;;15.60;5.35;;;;;;;11.03;75.92;101115.41;4988032;28;20093;-68
2023/03/21 07:05:30;;;;;;;13.90;5.03;;;;;;;11.00;77.59;101118.00;4988869;28;20041;-69
2023/03/21 07:07:55;;;;;;;10.25;4.45;;;;;;;11.00;77.65;101113.69;4991327;28;20497;-68
2023/03/21 07:10:21;;;;;;;10.60;5.72;;;;;;;11.02;77.66;101111.94;4990996;28;20105;-69
2023/03/21 07:12:46;;;;;;;10.13;4.97;;;;;;;11.05;77.81;101113.66;4989326;28;20046;-69
2023/03/21 07:15:11;;;;;;;11.68;5.20;;;;;;;11.04;77.49;101115.38;4995602;28;20043;-68
2023/03/21 07:17:37;;;;;;;13.98;5.90;;;;;;;11.03;77.71;101126.59;4993796;28;20121;-69
2023/03/21 07:20:07;;;;;;;11.63;5.63;;;;;;;10.99;77.74;101122.31;4978322;28;20038;-69
2023/03/21 07:22:32;;;;;;;14.10;5.90;;;;;;;10.95;77.87;101125.75;4990174;28;20038;-71
2023/03/21 07:24:58;;;;;;;19.80;6.13;;;;;;;10.91;78.77;101134.41;4989593;28;20030;-70
2023/03/21 07:27:23;;;;;;;14.27;5.55;;;;;;;10.83;79.87;101138.75;4991774;28;20856;-70
2023/03/21 07:29:49;;;;;;;17.38;6.47;;;;;;;10.79;81.66;101130.16;4990129;28;20044;-70
2023/03/21 07:32:15;;;;;;;16.65;5.82;;;;;;;10.77;82.19;101136.19;4991094;28;20036;-70
2023/03/21 07:34:41;;;;;;;14.13;5.30;;;;;;;10.73;82.45;101131.88;4996434;28;20084;-71
2023/03/21 07:37:06;;;;;;;9.80;4.93;;;;;;;10.69;83.71;101125.00;5001815;28;20104;-70
2023/03/21 07:39:33;;;;;;;14.02;5.88;;;;;;;10.69;84.82;101132.75;5000730;28;20125;-71
2023/03/21 07:41:59;;;;;;;13.38;5.05;;;;;;;10.65;84.91;101137.06;5010741;28;20038;-70
2023/03/21 07:44:24;;;;;;;13.00;5.50;;;;;;;10.62;86.01;101139.66;5006177;28;20029;-70
2023/03/21 07:46:50;;;;;;;11.98;6.20;;;;;;;10.55;86.15;101144.88;4997240;28;20026;-70
2023/03/21 07:49:15;;;;;;;13.25;5.60;;;;;;;10.50;88.26;101144.03;4992491;28;20061;-70
2023/03/21 07:51:41;;;;;;;13.82;5.50;;;;;;;10.49;88.08;101145.75;5003169;28;20042;-72
2023/03/21 07:54:06;;;;;;;17.30;5.90;;;;;;;10.43;89.64;101142.31;4995446;28;20096;-72
2023/03/21 07:56:32;;;;;;;13.15;5.78;;;;;;;10.35;89.98;101131.13;4997359;28;20503;-72
2023/03/21 07:58:58;;;;;;;15.23;5.97;;;;;;;10.32;90.30;101139.75;4990841;28;20534;-72
2023/03/21 08:01:24;;;;;;;12.40;5.43;;;;;;;10.27;91.95;101143.22;4996856;28;20153;-72
2023/03/21 08:03:52;;;;;;;13.90;6.05;;;;;;;10.14;91.59;101143.22;4992937;28;20080;-73
2023/03/21 08:06:21;;;;;;;13.45;6.28;;;;;;;10.11;92.31;101153.53;4996833;28;20050;-72
2023/03/21 08:08:46;;;;;;;17.13;6.32;;;;;;;10.06;92.53;101155.25;4995455;28;20038;-72
2023/03/21 08:11:12;;;;;;;14.48;6.35;;;;;;;10.04;92.92;101151.81;5001489;28;20033;-72
2023/03/21 08:13:38;;;;;;;15.88;6.20;;;;;;;10.06;93.30;101147.50;5000151;28;20068;-73
2023/03/21 08:16:03;;;;;;;15.82;6.55;;;;;;;10.09;94.36;101139.75;4998268;28;20034;-73
2023/03/21 08:18:29;;;;;;;15.95;7.13;;;;;;;10.11;93.70;101156.13;4995989;28;20053;-72
2023/03/21 08:20:56;;;;;;;11.60;6.60;;;;;;;10.13;93.99;101146.66;5001743;28;20030;-72
2023/03/21 08:23:23;;;;;;;12.77;6.68;;;;;;;10.13;94.41;101141.47;4990962;28;20049;-72
2023/03/21 08:25:53;;;;;;;19.45;8.15;;;;;;;10.18;94.81;101144.91;5003743;28;20124;-72
2023/03/21 08:28:19;;;;;;;19.30;7.00;;;;;;;10.21;94.71;101136.28;4995630;28;20065;-72
2023/03/21 08:30:45;;;;;;;18.55;8.90;;;;;;;10.24;94.68;101142.31;4993512;28;20034;-73
2023/03/21 08:33:12;;;;;;;19.20;8.52;;;;;;;10.28;95.22;101138.03;4996605;28;20038;-64
2023/03/21 08:35:38;;;;;;;16.58;7.63;;;;;;;10.25;94.23;101135.44;5007122;28;20042;-64
2023/03/21 08:38:04;;;;;;;16.70;6.85;;;;;;;10.26;94.85;101146.63;4991066;28;20378;-64
2023/03/21 08:40:30;;;;;;;17.67;7.97;;;;;;;10.23;95.18;101138.03;4999792;28;20034;-65
2023/03/21 08:42:55;;;;;;;16.30;7.75;;;;;;;10.29;94.95;101134.59;4994284;28;20033;-64
2023/03/21 08:45:22;;;;;;;17.65;8.93;;;;;;;10.36;94.68;101128.53;4992967;28;20030;-64
2023/03/21 08:47:48;;;;;;;19.42;9.95;;;;;;;10.45;94.77;101143.16;4994343;28;20131;-65
2023/03/21 08:50:17;;;;;;;20.15;8.80;;;;;;;10.51;94.94;101146.59;4996752;28;20474;-65
2023/03/21 08:52:42;;;;;;;18.35;8.80;;;;;;;10.59;95.15;101144.00;4986312;28;20033;-65
2023/03/21 08:55:09;;;;;;;20.73;9.07;;;;;;;10.58;94.35;101142.28;4994362;28;20038;-65
2023/03/21 08:57:35;;;;;;;18.70;7.90;;;;;;;10.59;94.90;101138.84;4989201;28;20037;-65
2023/03/21 09:00:01;;;;;;;19.73;6.57;;;;;;;10.43;93.37;101142.31;4987608;28;20035;-64
2023/03/21 09:02:26;;;;;;;15.02;7.63;;;;;;;10.41;93.14;101146.63;4993440;28;20037;-64
2023/03/21 09:04:57;;;;;;;19.23;7.65;;;;;;;10.36;94.28;101143.16;4996994;28;20542;-63
2023/03/21 09:07:25;;;;;;;16.65;6.97;;;;;;;10.27;93.77;101143.22;4979809;28;20042;-63
2023/03/21 09:09:52;;;;;;;18.55;7.18;;;;;;;10.18;94.71;101142.31;4999049;28;20042;-62
2023/03/21 09:12:18;;;;;;;14.20;6.93;;;;;;;10.11;94.88;101150.97;4993760;28;20107;-64
2023/03/21 09:14:43;;;;;;;16.98;7.00;;;;;;;10.06;95.46;101150.06;4993861;28;20038;-63
2023/03/21 09:17:09;;;;;;;17.92;6.97;;;;;;;10.04;95.68;101148.38;4993277;28;20026;-63
2023/03/21 09:19:34;;;;;;;12.85;7.10;;;;;;;10.07;96.01;101135.44;4988456;28;20065;-63
2023/03/21 09:22:01;;;;;;;18.48;7.00;;;;;;;10.11;96.15;101135.47;4994963;28;20125;-63
2023/03/21 09:24:26;;;;;;;18.80;7.57;;;;;;;10.15;95.67;101126.81;4992642;28;20034;-63
2023/03/21 09:26:52;;;;;;;18.88;8.38;;;;;;;10.19;95.63;101120.81;5004276;28;20533;-63
2023/03/21 09:29:19;;;;;;;15.38;8.13;;;;;;;10.25;96.02;101127.69;4993874;28;20088;-63
2023/03/21 09:31:45;;;;;;;13.85;7.07;;;;;;;10.22;95.46;101133.72;4996280;28;20116;-64
2023/03/21 09:34:13;;;;;;;22.33;8.02;;;;;;;10.22;96.17;101135.44;4987355;28;20065;-63
2023/03/21 09:36:40;;;;;;;15.35;7.97;;;;;;;10.17;96.24;101130.28;5000783;28;20894;-63
2023/03/21 09:39:06;;;;;;;12.60;7.35;;;;;;;10.17;96.87;101130.28;4997699;28;20088;-63
2023/03/21 09:42:10;;;;;;;20.60;9.50;;;;;;;10.23;97.07;101134.59;4995901;28;20049;-64
2023/03/21 09:45:04;;;;;;;20.60;9.23;;;;;;;10.30;97.11;101138.03;4993622;28;20447;-63
2023/03/21 09:47:36;;;;;;;19.20;8.77;;;;;;;10.38;97.59;101144.03;4990341;28;20085;-63
2023/03/21 09:50:26;;;;;;;24.20;9.98;;;;;;;10.37;97.22;101137.13;4984187;28;20030;-64
2023/03/21 09:53:07;;;;;;;18.23;8.85;;;;;;;10.34;95.92;101143.19;4988925;28;20029;-63
2023/03/21 09:55:36;;;;;;;22.60;10.52;;;;;;;10.33;95.57;101145.78;4987074;28;20037;-64
2023/03/21 09:58:27;;;;;;;15.77;8.63;;;;;;;10.27;96.14;101132.88;4987868;28;20034;-64
2023/03/21 10:01:04;;;;;;;19.95;10.32;;;;;;;10.31;96.91;101139.72;4990306;28;20034;-64
2023/03/21 10:03:35;;;;;;;18.98;9.88;;;;;;;10.29;96.68;101138.88;4998908;28;20038;-63
2023/03/21 10:06:08;;;;;;;19.63;9.80;;;;;;;10.32;97.37;101134.59;4994631;28;20037;-63
2023/03/21 10:08:38;;;;;;;18.10;10.20;;;;;;;10.28;96.92;101132.84;4995941;28;20148;-63
2023/03/21 10:11:21;;;;;;;21.88;9.52;;;;;;;10.27;96.66;101132.88;4991009;28;20040;-63
2023/03/21 10:14:31;;;;;;;19.52;9.70;;;;;;;10.22;97.17;101125.09;4990237;28;20029;-62
2023/03/21 10:17:11;;;;;;;19.35;9.63;;;;;;;10.27;97.77;101114.78;4992411;28;20656;-61
2023/03/21 10:19:37;;;;;;;22.63;10.73;;;;;;;10.32;97.61;101113.91;5004536;28;20026;-61
2023/03/21 10:22:02;;;;;;;17.35;9.45;;;;;;;10.32;97.15;101113.03;4995526;28;20791;-60
2023/03/21 10:24:30;;;;;;;21.27;9.20;;;;;;;10.31;97.06;101116.47;4998003;28;20037;-60
2023/03/21 10:26:56;;;;;;;22.33;10.15;;;;;;;10.31;96.56;101111.31;4995833;28;20100;-61
2023/03/21 10:29:41;;;;;;;24.67;9.98;;;;;;;10.29;96.74;101101.00;4994128;28;20041;-61
2023/03/21 10:32:12;;;;;;;21.00;10.05;;;;;;;10.38;97.60;101095.81;4997696;28;20041;-61
2023/03/21 10:34:52;;;;;;;24.42;9.27;;;;;;;10.43;96.42;101093.19;5004359;28;20069;-62
2023/03/21 10:37:18;;;;;;;19.73;8.63;;;;;;;10.42;96.18;101088.88;4994359;28;20069;-62
2023/03/21 10:39:47;;;;;;;15.55;9.43;;;;;;;10.45;96.56;101082.00;4996753;28;20527;-62
2023/03/21 10:42:23;;;;;;;16.40;8.27;;;;;;;10.46;95.96;101081.13;4995481;28;20153;-61
2023/03/21 10:44:51;;;;;;;18.35;7.55;;;;;;;10.44;94.69;101072.53;4997809;28;20089;-61
2023/03/21 10:47:23;;;;;;;17.38;7.72;;;;;;;10.58;95.44;101075.06;4990803;28;20029;-62
2023/03/21 10:49:49;;;;;;;15.27;8.38;;;;;;;10.64;94.13;101077.63;4982262;28;20613;-62
2023/03/21 10:52:20;;;;;;;19.77;8.07;;;;;;;10.82;93.41;101077.56;5006404;28;20041;-61
2023/03/21 10:54:45;;;;;;;21.55;7.80;;;;;;;10.94;93.11;101074.91;4994464;28;20395;-61
2023/03/21 10:57:17;;;;;;;15.52;7.93;;;;;;;11.00;92.73;101064.53;5000634;28;20034;-61
2023/03/21 10:59:57;;;;;;;12.15;6.78;;;;;;;11.09;91.73;101061.03;4987934;28;20111;-65
2023/03/21 11:02:32;;;;;;;13.70;6.85;;;;;;;11.21;91.59;101063.56;4987935;28;20045;-64
2023/03/21 11:05:04;;;;;;;19.70;8.05;;;;;;;11.23;91.20;101066.97;4987967;28;20030;-64
2023/03/21 11:07:31;;;;;;;10.25;6.72;;;;;;;11.29;90.95;101057.47;4993766;28;20077;-64
2023/03/21 11:10:00;;;;;;;17.02;7.15;;;;;;;11.37;89.84;101056.56;4992597;28;20042;-65
2023/03/21 11:12:36;;;;;;;12.45;7.25;;;;;;;11.54;90.36;101065.09;4988903;28;20034;-66
2023/03/21 11:15:26;;;;;;;14.10;6.75;;;;;;;11.47;90.26;101059.09;4996353;28;20049;-66
2023/03/21 11:17:51;;;;;;;11.07;6.55;;;;;;;11.48;90.62;101052.19;4998733;28;20034;-67
2023/03/21 11:20:19;;;;;;;14.07;6.47;;;;;;;11.38;89.60;101050.50;5004269;28;20982;-65
2023/03/21 11:22:46;;;;;;;10.80;5.85;;;;;;;11.13;90.41;101052.38;4990554;28;20026;-66
2023/03/21 11:25:30;;;;;;;12.65;6.50;;;;;;;11.05;91.02;101044.69;4991811;28;20037;-66
2023/03/21 11:27:56;;;;;;;14.23;6.45;;;;;;;11.08;92.08;101043.78;4989638;28;20157;-66
2023/03/21 11:30:26;;;;;;;12.68;6.30;;;;;;;11.11;91.18;101036.88;5001156;28;20034;-66
2023/03/21 11:33:00;;;;;;;10.77;6.05;;;;;;;11.16;91.61;101031.66;5002023;28;20041;-66